Time;durP1;ratioP1;P1;durP2;ratioP2;P2;SDS_P1;SDS_P2;PMS_P1;PMS_P2;Temp;Humidity;BMP_temperature;BMP_pressure;BME280_temperature;BME280_humidity;BME280_pressure;Samples;Min_cycle;Max_cycle;Signal;HPM_P1;HPM_P2
2020/12/10 00:00:50;;;;;;;42.22;25.95;;;;;;;;;;5048015;28;20199;-92
2020/12/10 00:03:20;;;;;;;40.55;25.52;;;;;;;;;;5052178;28;20198;-95
2020/12/10 00:05:48;;;;;;;42.00;25.42;;;;;;;;;;5054535;28;20198;-95
2020/12/10 00:08:15;;;;;;;41.80;27.00;;;;;;;;;;5053001;28;20522;-95
2020/12/10 00:10:42;;;;;;;45.67;26.35;;;;;;;;;;5049862;28;20205;-95
2020/12/10 00:13:09;;;;;;;40.15;26.95;;;;;;;;;;5053680;28;20194;-95
2020/12/10 00:15:37;;;;;;;41.63;25.55;;;;;;;;;;5052364;28;20249;-95
2020/12/10 00:18:36;;;;;;;40.00;25.02;;;;;;;;;;5049301;28;20225;-95
2020/12/10 00:21:35;;;;;;;40.67;26.27;;;;;;;;;;5047133;28;20218;-95
2020/12/10 00:24:06;;;;;;;38.80;24.42;;;;;;;;;;5010903;28;20309;-95
2020/12/10 00:26:33;;;;;;;42.72;24.83;;;;;;;;;;5017921;28;20199;-94
2020/12/10 00:29:09;;;;;;;39.05;25.80;;;;;;;;;;5029591;28;20275;-95
2020/12/10 00:31:38;;;;;;;41.33;26.95;;;;;;;;;;5018765;28;20556;-95
2020/12/10 00:34:06;;;;;;;43.15;25.02;;;;;;;;;;5019025;28;20203;-95
2020/12/10 00:36:37;;;;;;;39.83;24.20;;;;;;;;;;5018361;28;20191;-95
2020/12/10 00:39:05;;;;;;;38.75;25.55;;;;;;;;;;5018685;28;20533;-95
2020/12/10 00:46:04;;;;;;;41.60;25.35;;;;;;;;;;4926963;29;20289;-96
2020/12/10 00:49:20;;;;;;;43.88;25.00;;;;;;;;;;4944084;29;20221;-95
2020/12/10 00:52:42;;;;;;;44.63;25.52;;;;;;;;;;4906791;29;20211;-95
2020/12/10 00:55:19;;;;;;;39.53;25.08;;;;;;;;;;4885207;29;20210;-94
2020/12/10 00:58:01;;;;;;;39.85;25.95;;;;;;;;;;4902947;29;20222;-94
2020/12/10 01:00:28;;;;;;;43.75;24.83;;;;;;;;;;4914582;29;20313;-92
2020/12/10 01:02:55;;;;;;;38.63;23.80;;;;;;;;;;4940588;29;20201;-94
2020/12/10 01:05:22;;;;;;;36.10;23.38;;;;;;;;;;4940304;29;20190;-92
2020/12/10 01:07:50;;;;;;;38.55;24.27;;;;;;;;;;4940225;29;20225;-92
2020/12/10 01:10:18;;;;;;;40.95;23.80;;;;;;;;;;4940426;29;20198;-93
2020/12/10 01:12:45;;;;;;;39.67;23.92;;;;;;;;;;4939983;29;20202;-93
2020/12/10 01:15:12;;;;;;;40.42;24.23;;;;;;;;;;4940057;29;20208;-94
2020/12/10 01:17:42;;;;;;;43.53;24.95;;;;;;;;;;4940634;29;20256;-93
2020/12/10 01:20:10;;;;;;;40.50;24.02;;;;;;;;;;4940638;29;20186;-94
2020/12/10 01:22:37;;;;;;;41.28;24.92;;;;;;;;;;5022963;28;20281;-94
2020/12/10 01:25:05;;;;;;;43.17;26.48;;;;;;;;;;5058178;28;20217;-94
2020/12/10 01:27:32;;;;;;;48.92;28.35;;;;;;;;;;5059111;28;20220;-92
2020/12/10 01:30:00;;;;;;;47.60;28.17;;;;;;;;;;5058656;28;20183;-92
2020/12/10 01:32:27;;;;;;;42.85;26.48;;;;;;;;;;5058999;28;20289;-92
2020/12/10 01:34:54;;;;;;;42.80;25.77;;;;;;;;;;5058387;28;20555;-93
2020/12/10 01:37:21;;;;;;;42.03;26.00;;;;;;;;;;5059587;28;20627;-95
2020/12/10 01:39:48;;;;;;;39.90;26.30;;;;;;;;;;5059501;28;20198;-94
2020/12/10 01:42:17;;;;;;;41.80;25.17;;;;;;;;;;5058917;28;20275;-95
2020/12/10 01:44:44;;;;;;;42.75;24.08;;;;;;;;;;5058596;28;20226;-95
2020/12/10 01:47:11;;;;;;;41.63;24.52;;;;;;;;;;5058381;28;20194;-95
2020/12/10 01:49:40;;;;;;;53.90;28.23;;;;;;;;;;5059278;28;20545;-94
2020/12/10 01:52:07;;;;;;;45.88;26.48;;;;;;;;;;5059108;28;20212;-94
2020/12/10 01:54:35;;;;;;;41.95;25.08;;;;;;;;;;5058665;28;20198;-95
2020/12/10 01:57:02;;;;;;;40.92;24.30;;;;;;;;;;5059362;28;20440;-95
2020/12/10 01:59:30;;;;;;;44.45;25.38;;;;;;;;;;5058720;28;20253;-95
2020/12/10 02:01:57;;;;;;;43.58;26.73;;;;;;;;;;5058629;28;20239;-94
2020/12/10 02:04:29;;;;;;;39.70;23.85;;;;;;;;;;5058505;28;20218;-95
2020/12/10 02:06:56;;;;;;;40.67;25.92;;;;;;;;;;5059336;28;20205;-95
2020/12/10 02:09:24;;;;;;;40.25;24.20;;;;;;;;;;5058058;28;20270;-95
2020/12/10 02:11:51;;;;;;;36.60;23.92;;;;;;;;;;5058283;28;20216;-94
2020/12/10 02:14:18;;;;;;;43.10;24.20;;;;;;;;;;5058866;28;20198;-95
2020/12/10 02:16:47;;;;;;;36.00;23.55;;;;;;;;;;5059090;28;20206;-96
2020/12/10 02:19:14;;;;;;;40.95;23.85;;;;;;;;;;5058112;28;20226;-95
2020/12/10 02:21:41;;;;;;;45.97;25.50;;;;;;;;;;5058538;28;20193;-94
2020/12/10 02:24:09;;;;;;;38.85;24.27;;;;;;;;;;5058033;28;20628;-95
2020/12/10 02:26:36;;;;;;;40.58;23.10;;;;;;;;;;5058227;28;20205;-95
2020/12/10 02:29:04;;;;;;;38.03;24.10;;;;;;;;;;5058662;28;20186;-94
2020/12/10 02:31:32;;;;;;;44.33;24.40;;;;;;;;;;5058211;28;20208;-95
2020/12/10 02:34:00;;;;;;;40.40;24.98;;;;;;;;;;5058297;28;20190;-95
2020/12/10 02:36:27;;;;;;;37.22;23.23;;;;;;;;;;5059305;28;20567;-94
2020/12/10 02:39:20;;;;;;;40.38;22.80;;;;;;;;;;5062540;28;20190;-95
2020/12/10 02:41:48;;;;;;;37.35;21.95;;;;;;;;;;5003626;28;20212;-95
2020/12/10 02:44:15;;;;;;;40.83;23.58;;;;;;;;;;5002166;28;20229;-94
2020/12/10 02:46:42;;;;;;;34.75;21.20;;;;;;;;;;5001191;28;20287;-95
2020/12/10 02:49:09;;;;;;;33.67;20.20;;;;;;;;;;5001089;28;20215;-95
2020/12/10 02:51:36;;;;;;;36.25;24.05;;;;;;;;;;5001189;28;20218;-94
2020/12/10 02:54:03;;;;;;;39.10;23.58;;;;;;;;;;5001403;28;20226;-95
2020/12/10 02:56:31;;;;;;;36.17;21.80;;;;;;;;;;5000904;28;20671;-95
2020/12/10 02:58:58;;;;;;;38.10;22.90;;;;;;;;;;5000998;28;20231;-95
2020/12/10 03:01:25;;;;;;;42.30;22.02;;;;;;;;;;5001122;28;20212;-94
2020/12/10 03:28:27;;;;;;;34.42;19.67;;;;;;;;;;5056545;28;20177;-94
2020/12/10 03:30:56;;;;;;;31.75;18.63;;;;;;;;;;5056971;28;20194;-94
2020/12/10 03:33:24;;;;;;;34.05;20.02;;;;;;;;;;5056591;28;20278;-95
2020/12/10 03:39:30;;;;;;;35.70;20.33;;;;;;;;;;5032806;28;20683;-94
2020/12/10 03:41:59;;;;;;;37.08;20.42;;;;;;;;;;5039458;28;20198;-94
2020/12/10 03:44:28;;;;;;;29.77;18.50;;;;;;;;;;5039356;28;20218;-94
2020/12/10 03:46:55;;;;;;;28.00;17.38;;;;;;;;;;5039252;28;20202;-93
2020/12/10 03:49:37;;;;;;;29.88;18.63;;;;;;;;;;5038653;28;20232;-94
2020/12/10 03:52:04;;;;;;;32.85;18.85;;;;;;;;;;5039130;28;20228;-94
2020/12/10 03:54:31;;;;;;;33.35;18.90;;;;;;;;;;5039822;28;20282;-94
2020/12/10 03:56:58;;;;;;;34.63;19.42;;;;;;;;;;5040912;28;20194;-93
2020/12/10 03:59:26;;;;;;;29.40;18.40;;;;;;;;;;5040533;28;20194;-93
2020/12/10 04:01:57;;;;;;;27.08;17.85;;;;;;;;;;5040053;28;20270;-94
2020/12/10 04:04:27;;;;;;;34.92;19.65;;;;;;;;;;5040287;28;20218;-95
2020/12/10 04:07:00;;;;;;;29.88;17.42;;;;;;;;;;5040330;28;20214;-94
2020/12/10 04:10:12;;;;;;;31.10;21.10;;;;;;;;;;5040481;28;20290;-93
2020/12/10 04:12:39;;;;;;;33.25;18.85;;;;;;;;;;5040459;28;20206;-93
2020/12/10 04:15:07;;;;;;;34.78;19.17;;;;;;;;;;5040138;28;20496;-94
2020/12/10 04:17:34;;;;;;;33.40;19.10;;;;;;;;;;5040180;28;20226;-93
2020/12/10 04:20:02;;;;;;;33.42;19.00;;;;;;;;;;5040223;28;20212;-93
2020/12/10 04:22:29;;;;;;;29.38;19.05;;;;;;;;;;5039925;28;20190;-94
2020/12/10 04:24:56;;;;;;;34.53;18.80;;;;;;;;;;5039954;28;20222;-94
2020/12/10 04:27:30;;;;;;;32.85;18.65;;;;;;;;;;5039666;28;20566;-93
2020/12/10 04:29:57;;;;;;;31.63;19.42;;;;;;;;;;5042819;28;20601;-93
2020/12/10 04:32:43;;;;;;;33.53;18.42;;;;;;;;;;5044525;28;20541;-94
2020/12/10 04:35:10;;;;;;;37.53;19.75;;;;;;;;;;5040456;28;20321;-95
2020/12/10 04:37:37;;;;;;;27.65;16.45;;;;;;;;;;5040147;28;20216;-94
2020/12/10 04:40:48;;;;;;;22.10;15.55;;;;;;;;;;5040406;28;20225;-94
2020/12/10 04:44:25;;;;;;;31.85;18.33;;;;;;;;;;5037795;28;20269;-94
2020/12/10 05:08:33;;;;;;;32.28;19.27;;;;;;;;;;5050398;28;20177;-93
2020/12/10 05:11:00;;;;;;;37.30;19.25;;;;;;;;;;5039384;28;20264;-96
2020/12/10 05:13:27;;;;;;;34.88;19.58;;;;;;;;;;5039048;28;20208;-94
2020/12/10 05:15:54;;;;;;;31.83;17.63;;;;;;;;;;5038876;28;20186;-93
2020/12/10 05:18:22;;;;;;;30.67;18.77;;;;;;;;;;5038871;28;20226;-93
2020/12/10 05:20:51;;;;;;;33.90;17.40;;;;;;;;;;5039713;28;20202;-94
2020/12/10 05:23:35;;;;;;;30.67;18.95;;;;;;;;;;5038497;28;20179;-93
2020/12/10 05:26:04;;;;;;;32.97;19.08;;;;;;;;;;5039057;28;20257;-93
2020/12/10 05:28:42;;;;;;;30.00;16.85;;;;;;;;;;5038627;28;20194;-94
2020/12/10 05:31:11;;;;;;;27.15;16.88;;;;;;;;;;5039319;28;20210;-91
2020/12/10 05:33:53;;;;;;;30.30;17.10;;;;;;;;;;5039077;28;20210;-91
2020/12/10 05:36:20;;;;;;;31.05;19.13;;;;;;;;;;5038283;28;20568;-92
2020/12/10 05:38:58;;;;;;;26.08;16.50;;;;;;;;;;5038225;28;20298;-92
2020/12/10 05:41:26;;;;;;;29.10;18.65;;;;;;;;;;5038581;28;20198;-91
2020/12/10 05:43:53;;;;;;;36.50;19.90;;;;;;;;;;5038598;28;20228;-92
2020/12/10 05:46:22;;;;;;;32.38;18.30;;;;;;;;;;5038152;28;20599;-92
2020/12/10 05:48:51;;;;;;;37.42;20.73;;;;;;;;;;5038481;28;20229;-91
2020/12/10 05:51:23;;;;;;;29.52;19.23;;;;;;;;;;5039043;28;20216;-92
2020/12/10 05:53:51;;;;;;;31.55;19.75;;;;;;;;;;5038224;28;20460;-91
2020/12/10 05:56:19;;;;;;;26.70;17.35;;;;;;;;;;5038328;28;20317;-92
2020/12/10 05:58:53;;;;;;;25.98;16.85;;;;;;;;;;5038835;28;20210;-92
2020/12/10 06:01:28;;;;;;;22.02;14.48;;;;;;;;;;5038193;28;20217;-91
2020/12/10 06:03:56;;;;;;;25.55;17.05;;;;;;;;;;5038079;28;20544;-92
2020/12/10 06:06:24;;;;;;;22.88;15.00;;;;;;;;;;5037991;28;20216;-92
2020/12/10 06:08:51;;;;;;;26.70;16.70;;;;;;;;;;5039301;28;20241;-92
2020/12/10 06:11:20;;;;;;;26.33;16.90;;;;;;;;;;5040453;28;20206;-93
2020/12/10 06:13:48;;;;;;;27.48;17.27;;;;;;;;;;5042461;28;20179;-93
2020/12/10 06:16:19;;;;;;;27.75;16.75;;;;;;;;;;5042514;28;20194;-92
2020/12/10 06:19:01;;;;;;;29.35;18.65;;;;;;;;;;5041879;28;20214;-93
2020/12/10 06:21:42;;;;;;;30.60;19.40;;;;;;;;;;5042716;28;20245;-93
2020/12/10 06:24:37;;;;;;;29.83;18.23;;;;;;;;;;5048356;28;20212;-94
2020/12/10 06:27:28;;;;;;;33.15;19.58;;;;;;;;;;5021445;28;20249;-94
2020/12/10 06:30:14;;;;;;;36.53;19.83;;;;;;;;;;5056633;28;20202;-94
2020/12/10 06:32:47;;;;;;;32.78;19.83;;;;;;;;;;5010209;28;20198;-94
2020/12/10 06:35:30;;;;;;;34.38;19.98;;;;;;;;;;5041907;28;20254;-93
2020/12/10 06:37:57;;;;;;;30.17;18.73;;;;;;;;;;5041816;28;20572;-93
2020/12/10 06:40:36;;;;;;;37.78;21.63;;;;;;;;;;5042003;28;20198;-93
2020/12/10 06:43:06;;;;;;;35.05;20.10;;;;;;;;;;5042421;28;20198;-95
2020/12/10 06:45:36;;;;;;;35.75;22.00;;;;;;;;;;5042197;28;20214;-94
2020/12/10 06:48:04;;;;;;;39.22;23.60;;;;;;;;;;5041433;28;20309;-93
2020/12/10 06:50:33;;;;;;;38.80;21.83;;;;;;;;;;5041992;28;20212;-96
2020/12/10 06:53:18;;;;;;;42.67;23.42;;;;;;;;;;5041829;28;20190;-94
2020/12/10 06:56:07;;;;;;;38.78;22.10;;;;;;;;;;5042141;28;20206;-96
2020/12/10 06:58:57;;;;;;;32.60;20.23;;;;;;;;;;5041411;28;20198;-93
2020/12/10 07:01:29;;;;;;;34.42;19.17;;;;;;;;;;5038635;28;20198;-91
2020/12/10 07:04:33;;;;;;;37.50;20.88;;;;;;;;;;5041881;28;20297;-90
2020/12/10 07:07:15;;;;;;;32.40;19.85;;;;;;;;;;5041767;28;20238;-90
2020/12/10 07:09:50;;;;;;;35.47;20.58;;;;;;;;;;5041092;28;20195;-90
2020/12/10 07:12:22;;;;;;;32.60;20.88;;;;;;;;;;5041031;28;20569;-92
2020/12/10 07:15:09;;;;;;;35.58;20.13;;;;;;;;;;5042301;28;20471;-91
2020/12/10 07:17:39;;;;;;;36.63;19.88;;;;;;;;;;5041364;28;20257;-93
2020/12/10 07:20:28;;;;;;;38.17;22.00;;;;;;;;;;5041939;28;20198;-92
2020/12/10 07:22:56;;;;;;;32.35;18.73;;;;;;;;;;5039532;28;20215;-92
2020/12/10 07:25:23;;;;;;;36.97;20.70;;;;;;;;;;5041037;28;20285;-94
2020/12/10 07:27:50;;;;;;;40.20;22.50;;;;;;;;;;5040913;28;20179;-93
2020/12/10 07:30:20;;;;;;;33.42;20.00;;;;;;;;;;5041456;28;20199;-95
2020/12/10 07:32:50;;;;;;;31.27;18.70;;;;;;;;;;5041694;28;20194;-94
2020/12/10 07:35:34;;;;;;;34.05;19.25;;;;;;;;;;5041336;28;20202;-94
2020/12/10 07:38:12;;;;;;;37.45;20.77;;;;;;;;;;5041399;28;20614;-94
2020/12/10 07:40:40;;;;;;;39.50;21.65;;;;;;;;;;5042451;28;20651;-95
2020/12/10 07:43:10;;;;;;;35.45;19.90;;;;;;;;;;5042961;28;20202;-94
2020/12/10 07:45:39;;;;;;;37.83;20.08;;;;;;;;;;5044133;28;20202;-95
2020/12/10 07:48:07;;;;;;;35.63;21.58;;;;;;;;;;5041620;28;20218;-95
2020/12/10 07:50:36;;;;;;;37.55;21.10;;;;;;;;;;5041732;28;20229;-95
2020/12/10 07:53:07;;;;;;;36.97;21.40;;;;;;;;;;5042445;28;20212;-94
2020/12/10 07:55:37;;;;;;;37.28;20.83;;;;;;;;;;5042534;28;20226;-95
2020/12/10 08:01:56;;;;;;;35.33;21.25;;;;;;;;;;4925550;29;20231;-93
2020/12/10 08:04:27;;;;;;;33.70;20.05;;;;;;;;;;4928562;28;20258;-94
2020/12/10 08:06:55;;;;;;;33.72;20.30;;;;;;;;;;4929836;29;20218;-94
2020/12/10 08:09:22;;;;;;;33.20;18.45;;;;;;;;;;4923811;29;20242;-93
2020/12/10 08:11:51;;;;;;;33.15;20.25;;;;;;;;;;4923156;29;20198;-91
2020/12/10 08:14:29;;;;;;;35.08;20.08;;;;;;;;;;4922958;29;20237;-92
2020/12/10 08:16:58;;;;;;;37.20;20.85;;;;;;;;;;4922815;29;20210;-92
2020/12/10 08:19:27;;;;;;;35.83;21.08;;;;;;;;;;4922450;29;20250;-92
2020/12/10 08:21:55;;;;;;;36.97;20.38;;;;;;;;;;4922816;29;20213;-92
2020/12/10 08:24:35;;;;;;;38.38;20.17;;;;;;;;;;4922163;29;20194;-92
2020/12/10 08:27:02;;;;;;;29.73;17.63;;;;;;;;;;4922724;29;20245;-92
2020/12/10 08:29:33;;;;;;;34.45;19.23;;;;;;;;;;4923677;28;20217;-95
2020/12/10 08:32:22;;;;;;;37.60;22.52;;;;;;;;;;4930480;29;20215;-94
2020/12/10 08:35:03;;;;;;;37.30;20.95;;;;;;;;;;4923580;29;20289;-94
2020/12/10 08:37:38;;;;;;;40.30;24.40;;;;;;;;;;4972179;28;20255;-94
2020/12/10 08:40:05;;;;;;;39.25;23.17;;;;;;;;;;5043523;28;20205;-94
2020/12/10 08:42:33;;;;;;;39.72;21.15;;;;;;;;;;5044526;28;20528;-95
2020/12/10 08:45:00;;;;;;;38.55;22.85;;;;;;;;;;5042265;28;20439;-94
2020/12/10 08:47:30;;;;;;;44.72;25.63;;;;;;;;;;5044349;28;20217;-95
2020/12/10 08:50:24;;;;;;;53.10;26.83;;;;;;;;;;5041844;28;20317;-94
2020/12/10 08:53:03;;;;;;;43.97;24.83;;;;;;;;;;5042253;28;20293;-95
2020/12/10 08:55:40;;;;;;;56.72;25.30;;;;;;;;;;5048449;28;20345;-95
2020/12/10 08:58:27;;;;;;;43.88;25.92;;;;;;;;;;5050516;28;20225;-95
2020/12/10 09:00:57;;;;;;;45.13;23.63;;;;;;;;;;5028367;28;20206;-94
2020/12/10 09:03:31;;;;;;;49.88;26.02;;;;;;;;;;5027132;28;20281;-95
2020/12/10 09:38:11;;;;;;;48.50;25.27;;;;;;;;;;3458077;22;20514;-92
2020/12/10 09:40:39;;;;;;;48.53;26.38;;;;;;;;;;5070486;28;20209;-96
2020/12/10 09:43:22;;;;;;;43.65;25.25;;;;;;;;;;5074013;28;20193;-95
2020/12/10 09:45:55;;;;;;;36.05;21.25;;;;;;;;;;5027647;28;20229;-95
2020/12/10 09:48:48;;;;;;;38.35;23.92;;;;;;;;;;5030083;28;20223;-95
2020/12/10 09:51:18;;;;;;;32.90;20.55;;;;;;;;;;4984283;28;20208;-96
2020/12/10 09:54:26;;;;;;;39.25;22.50;;;;;;;;;;4990602;28;20212;-95
2020/12/10 09:57:21;;;;;;;33.83;22.08;;;;;;;;;;4906675;29;20217;-95
2020/12/10 10:01:01;;;;;;;38.38;24.17;;;;;;;;;;4916167;29;20207;-96
2020/12/10 10:03:53;;;;;;;39.55;24.67;;;;;;;;;;4915785;28;20267;-95
2020/12/10 10:06:30;;;;;;;43.17;24.65;;;;;;;;;;4803146;29;20215;-96
2020/12/10 10:08:58;;;;;;;36.15;22.75;;;;;;;;;;4783697;30;20203;-94
2020/12/10 10:11:52;;;;;;;33.65;22.52;;;;;;;;;;4805840;29;20203;-95
2020/12/10 10:14:48;;;;;;;42.70;24.67;;;;;;;;;;4744461;30;20208;-96
2020/12/10 10:17:16;;;;;;;33.15;23.75;;;;;;;;;;4712189;30;20237;-96
2020/12/10 10:19:43;;;;;;;40.55;25.45;;;;;;;;;;4713834;30;20539;-95
2020/12/10 10:22:18;;;;;;;42.50;25.40;;;;;;;;;;4732455;30;20217;-94
2020/12/10 10:25:14;;;;;;;39.60;24.13;;;;;;;;;;4764352;30;20576;-95
2020/12/10 10:27:53;;;;;;;38.22;21.52;;;;;;;;;;4781063;29;20492;-94
2020/12/10 10:30:23;;;;;;;42.17;24.35;;;;;;;;;;4785079;29;20472;-95
2020/12/10 10:33:11;;;;;;;38.55;24.35;;;;;;;;;;4752006;30;20217;-95
2020/12/10 10:38:17;;;;;;;44.85;26.48;;;;;;;;;;5255964;22;20623;-95
2020/12/10 10:41:02;;;;;;;38.80;24.13;;;;;;;;;;5066400;28;20456;-95
2020/12/10 10:43:29;;;;;;;37.60;24.33;;;;;;;;;;5067619;28;20218;-95
2020/12/10 10:45:57;;;;;;;37.58;25.17;;;;;;;;;;5067811;28;20201;-95
2020/12/10 10:48:24;;;;;;;34.72;23.58;;;;;;;;;;5066716;28;20241;-95
2020/12/10 10:51:15;;;;;;;37.83;24.48;;;;;;;;;;5071555;28;20228;-95
2020/12/10 10:59:50;;;;;;;37.95;24.58;;;;;;;;;;5334354;22;20295;-95
2020/12/10 11:02:20;;;;;;;36.65;23.17;;;;;;;;;;5070790;28;20201;-93
2020/12/10 11:05:10;;;;;;;36.13;24.75;;;;;;;;;;5068549;28;20224;-95
2020/12/10 11:07:37;;;;;;;42.15;24.92;;;;;;;;;;4989135;28;20227;-93
2020/12/10 11:10:12;;;;;;;38.20;23.63;;;;;;;;;;4986590;28;20197;-96
2020/12/10 11:13:02;;;;;;;41.97;25.65;;;;;;;;;;4968996;29;20224;-95
2020/12/10 11:15:38;;;;;;;43.42;25.58;;;;;;;;;;4967814;29;20233;-95
2020/12/10 11:18:05;;;;;;;38.50;22.98;;;;;;;;;;4964187;29;20213;-95
2020/12/10 11:20:32;;;;;;;42.08;25.38;;;;;;;;;;4962799;29;20463;-94
2020/12/10 11:22:59;;;;;;;42.20;25.83;;;;;;;;;;4962351;29;20201;-93
2020/12/10 11:25:26;;;;;;;40.30;23.23;;;;;;;;;;4962699;29;20193;-94
2020/12/10 11:27:53;;;;;;;36.42;22.83;;;;;;;;;;4962750;29;20221;-95
2020/12/10 11:30:20;;;;;;;38.80;24.23;;;;;;;;;;4966248;29;20243;-95
2020/12/10 11:32:49;;;;;;;38.03;24.65;;;;;;;;;;4962657;29;20205;-94
2020/12/10 11:35:16;;;;;;;40.28;22.92;;;;;;;;;;4963028;29;20296;-96
2020/12/10 11:37:43;;;;;;;36.25;23.15;;;;;;;;;;4992160;28;20194;-93
2020/12/10 11:40:10;;;;;;;40.25;26.27;;;;;;;;;;5061185;28;20197;-93
2020/12/10 11:42:37;;;;;;;45.63;27.13;;;;;;;;;;5061437;28;20259;-95
2020/12/10 11:45:04;;;;;;;39.15;24.45;;;;;;;;;;5060767;28;20452;-95
2020/12/10 11:47:31;;;;;;;36.65;23.95;;;;;;;;;;5061628;28;20225;-95
2020/12/10 11:49:59;;;;;;;39.00;25.02;;;;;;;;;;5060523;28;20309;-95
2020/12/10 11:52:26;;;;;;;39.70;24.73;;;;;;;;;;5061786;28;20219;-93
2020/12/10 11:54:53;;;;;;;38.65;23.50;;;;;;;;;;5062086;28;20449;-95
2020/12/10 11:57:20;;;;;;;36.15;22.48;;;;;;;;;;5062086;28;20194;-95
2020/12/10 11:59:47;;;;;;;34.28;20.83;;;;;;;;;;5061188;28;20225;-94
2020/12/10 12:02:15;;;;;;;39.88;25.25;;;;;;;;;;5061384;28;20201;-94
2020/12/10 12:04:41;;;;;;;41.90;25.60;;;;;;;;;;5060435;28;20212;-93
2020/12/10 12:07:09;;;;;;;41.13;25.17;;;;;;;;;;5062308;28;20386;-95
2020/12/10 12:09:39;;;;;;;37.65;25.73;;;;;;;;;;5060982;28;20291;-96
2020/12/10 12:12:06;;;;;;;38.67;25.67;;;;;;;;;;5062161;28;20194;-95
2020/12/10 12:14:33;;;;;;;38.40;23.33;;;;;;;;;;5060563;28;20280;-95
2020/12/10 12:17:00;;;;;;;49.40;30.40;;;;;;;;;;5060408;28;20201;-93
2020/12/10 12:19:27;;;;;;;35.33;23.65;;;;;;;;;;5059961;28;20495;-94
2020/12/10 12:21:56;;;;;;;38.50;23.65;;;;;;;;;;5060434;28;20216;-95
2020/12/10 12:24:24;;;;;;;34.72;21.83;;;;;;;;;;5060705;28;20211;-94
2020/12/10 12:26:51;;;;;;;34.88;23.42;;;;;;;;;;5059943;28;20273;-94
2020/12/10 12:29:18;;;;;;;30.50;20.17;;;;;;;;;;5063391;28;20273;-96
2020/12/10 12:31:45;;;;;;;38.80;23.17;;;;;;;;;;5062398;28;20204;-91
2020/12/10 12:34:12;;;;;;;40.40;24.48;;;;;;;;;;5060991;28;20457;-92
2020/12/10 12:36:39;;;;;;;34.05;21.30;;;;;;;;;;5061044;28;20202;-95
2020/12/10 12:39:07;;;;;;;33.08;19.48;;;;;;;;;;5062620;28;20190;-95
2020/12/10 12:41:39;;;;;;;27.02;19.27;;;;;;;;;;5062252;28;20194;-96
2020/12/10 12:44:06;;;;;;;30.80;19.23;;;;;;;;;;5061436;28;20267;-94
2020/12/10 12:46:34;;;;;;;31.90;19.05;;;;;;;;;;5062759;28;20214;-93
2020/12/10 12:49:01;;;;;;;29.55;18.83;;;;;;;;;;5058818;28;20217;-93
2020/12/10 12:51:28;;;;;;;30.10;19.77;;;;;;;;;;5059671;28;20243;-93
2020/12/10 12:53:55;;;;;;;27.60;18.67;;;;;;;;;;5059019;28;20174;-93
2020/12/10 12:56:23;;;;;;;24.88;16.58;;;;;;;;;;5060206;28;20201;-91
2020/12/10 12:58:52;;;;;;;29.30;18.08;;;;;;;;;;5059811;28;20229;-94
2020/12/10 13:01:20;;;;;;;28.15;18.23;;;;;;;;;;5059022;28;20586;-92
2020/12/10 13:03:47;;;;;;;26.30;17.85;;;;;;;;;;5059573;28;20216;-90
2020/12/10 13:06:14;;;;;;;29.48;17.65;;;;;;;;;;5059264;28;20597;-91
2020/12/10 13:08:41;;;;;;;31.55;17.67;;;;;;;;;;5060083;28;20227;-94
2020/12/10 13:11:09;;;;;;;24.33;16.58;;;;;;;;;;5059503;28;20198;-95
2020/12/10 13:13:36;;;;;;;31.98;20.08;;;;;;;;;;5061684;28;20194;-94
2020/12/10 13:16:05;;;;;;;25.60;17.33;;;;;;;;;;5059310;28;20198;-95
2020/12/10 13:18:31;;;;;;;26.45;17.75;;;;;;;;;;5058902;28;20218;-95
2020/12/10 13:20:59;;;;;;;27.75;18.33;;;;;;;;;;5058037;28;20601;-94
2020/12/10 13:23:26;;;;;;;32.47;19.45;;;;;;;;;;5059504;28;20197;-93
2020/12/10 13:25:53;;;;;;;23.13;16.63;;;;;;;;;;5059634;28;20204;-93
2020/12/10 13:28:20;;;;;;;23.40;17.23;;;;;;;;;;5059403;28;20312;-94
2020/12/10 13:30:47;;;;;;;27.08;18.58;;;;;;;;;;5058670;28;20193;-95
2020/12/10 13:33:15;;;;;;;26.38;17.50;;;;;;;;;;5059386;28;20202;-94
2020/12/10 13:35:44;;;;;;;24.92;17.92;;;;;;;;;;5058187;28;20193;-93
2020/12/10 13:38:11;;;;;;;28.05;18.38;;;;;;;;;;5059513;28;20193;-93
2020/12/10 13:40:38;;;;;;;23.42;15.65;;;;;;;;;;5059320;28;20205;-95
2020/12/10 13:43:05;;;;;;;25.33;17.20;;;;;;;;;;5059235;28;20227;-92
2020/12/10 13:45:32;;;;;;;23.45;16.27;;;;;;;;;;5058907;28;20205;-92
2020/12/10 13:47:59;;;;;;;25.23;16.42;;;;;;;;;;5058615;28;20600;-92
2020/12/10 13:50:27;;;;;;;22.42;14.88;;;;;;;;;;5058712;28;20506;-94
2020/12/10 13:52:54;;;;;;;25.90;14.95;;;;;;;;;;5058927;28;20208;-94
2020/12/10 13:55:21;;;;;;;21.52;15.73;;;;;;;;;;5058699;28;20178;-95
2020/12/10 13:57:48;;;;;;;22.70;14.88;;;;;;;;;;5058370;28;20188;-92
2020/12/10 14:00:15;;;;;;;21.45;14.77;;;;;;;;;;5058060;28;20225;-93
2020/12/10 14:02:42;;;;;;;24.73;16.40;;;;;;;;;;5059061;28;20197;-95
2020/12/10 14:05:09;;;;;;;21.80;14.95;;;;;;;;;;5058702;28;20201;-93
2020/12/10 14:07:38;;;;;;;20.90;13.75;;;;;;;;;;5059543;28;20205;-92
2020/12/10 14:10:05;;;;;;;20.45;14.25;;;;;;;;;;5058334;28;20632;-93
2020/12/10 14:12:32;;;;;;;21.15;15.60;;;;;;;;;;5058497;28;20269;-93
2020/12/10 14:14:59;;;;;;;23.83;16.27;;;;;;;;;;5058854;28;20202;-94
2020/12/10 14:17:26;;;;;;;23.88;15.25;;;;;;;;;;5058755;28;20189;-93
2020/12/10 14:19:53;;;;;;;19.95;13.82;;;;;;;;;;5058824;28;20222;-93
2020/12/10 14:22:21;;;;;;;24.35;15.88;;;;;;;;;;5058650;28;20220;-90
2020/12/10 14:24:49;;;;;;;23.90;16.92;;;;;;;;;;5058601;28;20236;-93
2020/12/10 14:27:16;;;;;;;24.10;16.38;;;;;;;;;;5058454;28;20183;-93
2020/12/10 14:29:43;;;;;;;23.35;15.77;;;;;;;;;;5058780;28;20469;-94
2020/12/10 14:32:10;;;;;;;21.63;15.27;;;;;;;;;;5059207;28;20208;-93
2020/12/10 14:34:37;;;;;;;21.92;15.23;;;;;;;;;;5062188;28;20201;-92
2020/12/10 14:37:04;;;;;;;23.30;14.80;;;;;;;;;;5062087;28;20517;-93
2020/12/10 14:39:31;;;;;;;22.73;15.80;;;;;;;;;;5062442;28;20224;-94
2020/12/10 14:41:59;;;;;;;24.42;17.40;;;;;;;;;;5062381;28;20190;-93
2020/12/10 14:44:26;;;;;;;21.50;14.70;;;;;;;;;;5062174;28;20201;-92
2020/12/10 14:46:53;;;;;;;22.10;16.00;;;;;;;;;;5061910;28;20185;-93
2020/12/10 14:49:20;;;;;;;21.95;15.13;;;;;;;;;;5061495;28;20222;-93
2020/12/10 14:51:48;;;;;;;26.50;16.52;;;;;;;;;;5061303;28;20182;-92
2020/12/10 14:54:15;;;;;;;34.40;18.13;;;;;;;;;;5061549;28;20178;-92
2020/12/10 14:56:42;;;;;;;23.98;15.40;;;;;;;;;;5061936;28;20220;-93
2020/12/10 14:59:10;;;;;;;28.33;17.08;;;;;;;;;;5061241;28;20232;-91
2020/12/10 15:01:37;;;;;;;24.40;16.95;;;;;;;;;;5061921;28;20216;-92
2020/12/10 15:04:04;;;;;;;24.33;17.90;;;;;;;;;;5062129;28;20192;-91
2020/12/10 15:06:31;;;;;;;25.20;16.50;;;;;;;;;;5061785;28;20258;-93
2020/12/10 15:08:59;;;;;;;24.50;16.73;;;;;;;;;;5061170;28;20582;-91
2020/12/10 15:11:26;;;;;;;24.63;17.17;;;;;;;;;;5061436;28;20200;-93
2020/12/10 15:13:54;;;;;;;25.42;17.17;;;;;;;;;;5061275;28;20190;-92
2020/12/10 15:16:22;;;;;;;26.70;16.95;;;;;;;;;;5061283;28;20566;-91
2020/12/10 15:18:49;;;;;;;26.67;16.63;;;;;;;;;;5061714;28;20222;-92
2020/12/10 15:21:17;;;;;;;22.55;15.15;;;;;;;;;;5061514;28;20213;-93
2020/12/10 15:23:44;;;;;;;29.20;18.95;;;;;;;;;;5061215;28;20179;-92
2020/12/10 15:26:12;;;;;;;30.15;18.08;;;;;;;;;;5061310;28;20208;-89
2020/12/10 15:28:39;;;;;;;27.52;17.58;;;;;;;;;;5061623;28;20460;-91
2020/12/10 15:31:06;;;;;;;25.05;17.15;;;;;;;;;;5061296;28;20186;-91
2020/12/10 15:33:34;;;;;;;25.83;16.95;;;;;;;;;;5061194;28;20197;-89
2020/12/10 15:36:01;;;;;;;26.63;17.20;;;;;;;;;;5060764;28;20456;-91
2020/12/10 15:38:28;;;;;;;22.33;15.30;;;;;;;;;;5060726;28;20182;-88
2020/12/10 15:41:01;;;;;;;27.17;16.77;;;;;;;;;;5060781;28;20615;-91
2020/12/10 15:43:28;;;;;;;27.67;17.38;;;;;;;;;;5060841;28;20202;-90
2020/12/10 15:45:55;;;;;;;33.95;20.70;;;;;;;;;;5061279;28;20197;-92
2020/12/10 15:48:23;;;;;;;26.05;16.83;;;;;;;;;;5060223;28;20236;-91
2020/12/10 15:50:51;;;;;;;32.38;20.15;;;;;;;;;;5060584;28;20287;-90
2020/12/10 15:53:18;;;;;;;27.40;18.48;;;;;;;;;;5060617;28;20208;-91
2020/12/10 15:55:45;;;;;;;33.88;20.65;;;;;;;;;;5060237;28;20477;-91
2020/12/10 15:58:12;;;;;;;25.92;18.45;;;;;;;;;;5060499;28;20284;-92
2020/12/10 16:00:39;;;;;;;30.20;19.45;;;;;;;;;;5060194;28;20236;-91
2020/12/10 16:03:06;;;;;;;36.08;19.77;;;;;;;;;;5060319;28;20178;-91
2020/12/10 16:05:33;;;;;;;28.27;18.02;;;;;;;;;;5061194;28;20208;-91
2020/12/10 16:08:01;;;;;;;29.95;17.98;;;;;;;;;;5060561;28;20205;-89
2020/12/10 16:10:28;;;;;;;25.40;18.83;;;;;;;;;;5060630;28;20501;-90
2020/12/10 16:12:55;;;;;;;33.35;19.02;;;;;;;;;;5060696;28;20193;-91
2020/12/10 16:15:22;;;;;;;31.70;17.95;;;;;;;;;;5060742;28;20211;-91
2020/12/10 16:17:49;;;;;;;29.25;19.40;;;;;;;;;;5059863;28;20204;-91
2020/12/10 16:20:16;;;;;;;29.85;17.48;;;;;;;;;;5059861;28;20215;-89